HRGA4: Little River, Horatio, AR

Data processed at Thu Mar 08 2018 23:20


All information presented herein is the property of the government of the United States of America and may be revised or deleted at any time without prior notice.
Dissemination of this information without the expressed written consent of the Public Affairs Office, Tulsa District U.S. Army Corps of Engineers is strictly prohibited.
These data are gathered electronically and, as presented, have not undergone any form of quality control. These data are not guaranteed to be valid or correct.
Go to home page.
Go to station list.

Upstream stations:

Downstream station:
Previous Day
Next Day
Current Day
    
SHEF ID:       HRGA4     Little River near Horatio, AR
STATION TYPE:  

               PRECIP     STAGE  RIV-FLOW  BAT-LOAD
                   in        ft       cfs      volt
              Ccp-Rev   Ccp-Rev   Ccp-Rev   Ccp-Rev
(US/Central)
03/06 00:00      0.00     17.02     10952     12.97
03/06 01:00      0.00     16.70     10590     12.97
03/06 02:00      0.00     16.37     10220     12.89
03/06 03:00      0.00     16.07      9886     12.89
03/06 04:00      0.00     15.78      9566     12.89
03/06 05:00      0.00     15.52      9282     12.89
03/06 06:00      0.00     15.30      9042     12.81
03/06 07:00      0.00     15.13      8859     12.81
03/06 08:00      0.00     14.97      8687     12.81
03/06 09:00      0.00     14.84      8548     12.89
03/06 10:00      0.00     14.71      8409     13.29
03/06 11:00      0.00     14.58      8271     14.00
03/06 12:00      0.00     14.49      8176     13.84
03/06 13:00      0.00     14.39      8071     13.60
03/06 14:00      0.00     14.29      7966     13.44
03/06 15:00      0.00     14.23      7903     13.44
03/06 16:00      0.00     14.21      7882     13.37
03/06 17:00      0.00     14.26      7934     13.37
03/06 18:00      0.00     14.31      7987     13.29
03/06 19:00      0.00     14.36      8039     13.21
03/06 20:00      0.00     14.45      8134     13.05
03/06 21:00      0.00     14.54      8229     13.05
03/06 22:00      0.00     14.62      8314     13.05
03/06 23:00      0.00     14.76      8463     12.97